Time;durP1;ratioP1;P1;durP2;ratioP2;P2;SDS_P1;SDS_P2;PMS_P1;PMS_P2;Temp;Humidity;BMP_temperature;BMP_pressure;BME280_temperature;BME280_humidity;BME280_pressure;Samples;Min_cycle;Max_cycle;Signal;HPM_P1;HPM_P2
2021/04/16 00:01:00;;;;;;;7.25;5.50;;;;;;;3.70;66.34;100251.69;4957284;28;20270;-71
2021/04/16 00:03:27;;;;;;;6.97;4.85;;;;;;;3.64;66.47;100253.56;4956769;28;20600;-70
2021/04/16 00:05:54;;;;;;;5.72;4.90;;;;;;;3.61;66.71;100251.00;4956763;28;20202;-69
2021/04/16 00:08:25;;;;;;;5.10;4.63;;;;;;;3.51;66.97;100251.16;4956992;28;20247;-70
2021/04/16 00:10:54;;;;;;;7.35;5.53;;;;;;;3.59;66.23;100243.00;4957136;28;20622;-71
2021/04/16 00:13:22;;;;;;;7.32;6.30;;;;;;;3.52;66.44;100247.59;4956966;28;20200;-68
2021/04/16 00:15:49;;;;;;;5.70;4.68;;;;;;;3.53;66.84;100241.38;4956868;28;20246;-69
2021/04/16 00:18:18;;;;;;;7.57;4.88;;;;;;;3.53;66.46;100245.81;4956472;28;20288;-71
2021/04/16 00:20:44;;;;;;;6.28;4.47;;;;;;;3.47;66.80;100240.59;4956781;28;20695;-70
2021/04/16 00:23:11;;;;;;;7.68;4.95;;;;;;;3.45;67.13;100242.41;4956761;28;20689;-70
2021/04/16 00:25:38;;;;;;;6.65;5.18;;;;;;;3.34;67.52;100242.59;4956698;28;20233;-69
2021/04/16 00:28:06;;;;;;;6.53;4.60;;;;;;;3.44;67.16;100244.19;4956528;28;20210;-71
2021/04/16 00:30:36;;;;;;;6.20;5.13;;;;;;;3.52;66.63;100238.72;4956581;28;20272;-71
2021/04/16 00:33:02;;;;;;;6.18;4.07;;;;;;;3.46;66.70;100238.81;4956184;28;20293;-69
2021/04/16 00:35:28;;;;;;;4.55;4.15;;;;;;;3.56;65.86;100232.44;4956222;28;20239;-71
2021/04/16 00:37:55;;;;;;;6.38;5.15;;;;;;;3.57;65.69;100233.31;4956152;28;20257;-71
2021/04/16 00:40:25;;;;;;;8.75;4.60;;;;;;;3.58;65.82;100232.41;4955845;28;20205;-70
2021/04/16 00:42:55;;;;;;;6.75;4.72;;;;;;;3.59;65.74;100224.38;4956085;28;20364;-71
2021/04/16 00:45:24;;;;;;;5.05;4.65;;;;;;;3.60;65.62;100227.94;4956353;28;20626;-71
2021/04/16 00:47:54;;;;;;;4.78;4.35;;;;;;;3.62;65.73;100224.34;4956087;28;20222;-71
2021/04/16 00:50:25;;;;;;;6.18;4.72;;;;;;;3.58;65.67;100227.97;4956285;28;20260;-70
2021/04/16 00:52:52;;;;;;;5.38;4.88;;;;;;;3.63;65.05;100219.88;4956261;28;20241;-68
2021/04/16 00:55:19;;;;;;;5.07;4.60;;;;;;;3.76;64.58;100229.38;4956004;28;20304;-71
2021/04/16 00:57:46;;;;;;;5.78;4.97;;;;;;;3.82;64.36;100226.59;4955939;28;20188;-70
2021/04/16 01:00:14;;;;;;;4.97;4.20;;;;;;;3.90;63.93;100213.13;4956024;28;20667;-70
2021/04/16 01:02:40;;;;;;;5.57;4.03;;;;;;;4.02;63.49;100220.84;4955695;28;20289;-71
2021/04/16 01:05:08;;;;;;;6.25;4.68;;;;;;;3.93;63.69;100216.59;4955526;28;20222;-69
2021/04/16 01:07:34;;;;;;;4.60;4.20;;;;;;;3.92;63.93;100212.16;4955673;28;20619;-71
2021/04/16 01:10:00;;;;;;;5.95;4.50;;;;;;;3.75;64.52;100214.28;4955887;28;20629;-72
2021/04/16 01:12:27;;;;;;;4.95;4.40;;;;;;;3.72;64.66;100219.69;4955761;28;20200;-71
2021/04/16 01:15:02;;;;;;;4.90;4.50;;;;;;;3.78;64.60;100214.25;4955644;28;20185;-70
2021/04/16 01:17:29;;;;;;;5.38;4.88;;;;;;;3.65;65.35;100218.06;4955798;28;20210;-71
2021/04/16 01:20:01;;;;;;;4.85;4.35;;;;;;;3.66;65.12;100212.69;4955711;28;20659;-71
2021/04/16 01:22:32;;;;;;;5.30;4.18;;;;;;;3.72;65.00;100212.56;4955619;28;20541;-71
2021/04/16 01:25:01;;;;;;;7.78;4.35;;;;;;;3.73;64.75;100208.13;4955175;28;20227;-71
2021/04/16 01:27:28;;;;;;;5.60;4.50;;;;;;;3.70;64.60;100206.41;4955561;28;20273;-71
2021/04/16 01:29:55;;;;;;;5.40;4.15;;;;;;;3.82;64.78;100207.97;4955383;28;20651;-70
2021/04/16 01:32:25;;;;;;;5.07;4.40;;;;;;;3.83;64.71;100209.69;4955358;28;20278;-70
2021/04/16 01:34:51;;;;;;;5.22;4.72;;;;;;;3.86;64.37;100204.28;4955278;28;20210;-71
2021/04/16 01:37:18;;;;;;;7.28;4.15;;;;;;;3.86;64.42;100206.97;4955280;28;20549;-71
2021/04/16 01:39:45;;;;;;;5.65;4.43;;;;;;;3.87;64.35;100203.41;4954738;28;20298;-70
2021/04/16 01:42:12;;;;;;;4.57;4.15;;;;;;;3.86;64.13;100198.97;4955488;28;20550;-69
2021/04/16 01:44:43;;;;;;;4.93;4.45;;;;;;;4.00;64.16;100196.00;4955249;28;20199;-72
2021/04/16 01:47:12;;;;;;;5.25;4.30;;;;;;;3.81;64.66;100197.31;4954920;28;20224;-72
2021/04/16 01:49:40;;;;;;;4.32;4.00;;;;;;;3.87;64.52;100197.19;4954768;28;20277;-71
2021/04/16 01:52:09;;;;;;;5.18;4.38;;;;;;;3.86;64.79;100192.75;4954095;28;20223;-69
2021/04/16 01:54:37;;;;;;;6.15;4.50;;;;;;;3.66;65.54;100201.16;4954779;28;20211;-70
2021/04/16 01:57:09;;;;;;;4.63;4.22;;;;;;;3.72;65.06;100193.06;4954980;28;20241;-70
2021/04/16 01:59:38;;;;;;;5.90;4.43;;;;;;;3.75;65.11;100195.66;4955063;28;20226;-70
2021/04/16 02:02:06;;;;;;;7.60;4.63;;;;;;;3.78;65.32;100192.94;4954827;28;20216;-72
2021/04/16 02:04:32;;;;;;;5.68;4.68;;;;;;;3.75;65.07;100191.22;4954743;28;20287;-70
2021/04/16 02:06:59;;;;;;;6.55;4.90;;;;;;;3.78;64.92;100184.03;4955074;28;20263;-71
2021/04/16 02:09:27;;;;;;;5.43;3.70;;;;;;;3.84;64.84;100181.25;4954700;28;20302;-69
2021/04/16 02:11:53;;;;;;;5.03;4.53;;;;;;;3.84;64.35;100184.78;4954732;28;20250;-70
2021/04/16 02:14:21;;;;;;;4.25;3.95;;;;;;;3.90;64.35;100179.34;4954798;28;20190;-71
2021/04/16 02:16:52;;;;;;;4.03;3.60;;;;;;;3.91;64.06;100170.47;4954902;28;20192;-72
2021/04/16 02:19:19;;;;;;;4.43;4.10;;;;;;;3.73;64.72;100178.81;4954996;28;20209;-69
2021/04/16 02:21:45;;;;;;;5.20;4.70;;;;;;;3.73;65.26;100185.03;4954285;28;20220;-71
2021/04/16 02:24:12;;;;;;;4.70;4.20;;;;;;;3.73;65.21;100176.16;4954745;28;20620;-72
2021/04/16 02:26:39;;;;;;;5.00;4.60;;;;;;;3.74;65.42;100170.81;4954257;28;20299;-70
2021/04/16 02:29:07;;;;;;;4.97;4.47;;;;;;;3.68;65.21;100183.38;4954333;28;20219;-71
2021/04/16 02:31:33;;;;;;;4.82;4.25;;;;;;;3.71;65.23;100176.22;4954527;28;20242;-71
2021/04/16 02:34:01;;;;;;;5.60;4.50;;;;;;;3.70;65.47;100171.78;4954694;28;20278;-71
2021/04/16 02:36:27;;;;;;;4.43;4.03;;;;;;;3.79;65.34;100175.16;4954752;28;20214;-72
2021/04/16 02:38:54;;;;;;;4.95;4.45;;;;;;;3.76;65.21;100171.66;4954424;28;20195;-71
2021/04/16 02:41:20;;;;;;;4.35;4.05;;;;;;;3.76;65.49;100170.78;4954221;28;20214;-71
2021/04/16 02:43:47;;;;;;;5.03;4.57;;;;;;;3.87;64.94;100165.22;4954594;28;20222;-71
2021/04/16 02:46:13;;;;;;;4.38;4.00;;;;;;;3.86;64.76;100166.13;4954505;28;20662;-71
2021/04/16 02:48:39;;;;;;;5.75;4.75;;;;;;;3.92;64.92;100166.00;4954434;28;20750;-71
2021/04/16 02:51:06;;;;;;;4.55;4.15;;;;;;;3.99;64.67;100172.06;4954397;28;20285;-71
2021/04/16 02:53:33;;;;;;;6.90;4.75;;;;;;;3.97;64.45;100158.78;4954802;28;20214;-71
2021/04/16 02:55:59;;;;;;;5.75;5.00;;;;;;;3.89;64.56;100161.63;4954515;28;20672;-70
2021/04/16 02:58:25;;;;;;;5.57;4.80;;;;;;;3.87;64.93;100163.44;4954236;28;20601;-70
2021/04/16 03:00:51;;;;;;;7.20;4.25;;;;;;;3.86;64.99;100161.66;4954508;28;20530;-71
2021/04/16 03:03:17;;;;;;;5.55;4.55;;;;;;;3.80;65.05;100161.81;4955967;28;20237;-71
2021/04/16 03:05:44;;;;;;;5.22;4.00;;;;;;;3.79;65.52;100162.72;4957981;28;20192;-70
2021/04/16 03:08:10;;;;;;;5.05;4.63;;;;;;;3.82;65.33;100165.34;4958013;28;20683;-71
2021/04/16 03:10:37;;;;;;;7.15;5.18;;;;;;;3.75;65.88;100169.00;4958222;28;20191;-69
2021/04/16 03:13:04;;;;;;;5.20;4.70;;;;;;;3.69;66.04;100163.84;4957703;28;20236;-70
2021/04/16 03:15:31;;;;;;;5.13;4.60;;;;;;;3.71;66.06;100162.88;4957721;28;20670;-71
2021/04/16 03:17:57;;;;;;;8.20;5.57;;;;;;;3.72;66.12;100150.44;4957998;28;20190;-70
2021/04/16 03:20:24;;;;;;;5.22;4.75;;;;;;;3.70;66.17;100155.78;4957810;28;20291;-70
2021/04/16 03:22:50;;;;;;;7.72;4.90;;;;;;;3.75;66.19;100151.25;4958014;28;20224;-70
2021/04/16 03:25:18;;;;;;;6.10;5.13;;;;;;;3.71;66.42;100162.03;4957808;28;20237;-70
2021/04/16 03:27:45;;;;;;;5.53;4.93;;;;;;;3.59;66.50;100162.25;4957588;28;20244;-70
2021/04/16 03:30:16;;;;;;;5.60;5.10;;;;;;;3.66;66.63;100161.22;4957841;28;20240;-70
2021/04/16 03:32:42;;;;;;;5.95;4.50;;;;;;;3.61;66.53;100153.31;4957774;28;20285;-71
2021/04/16 03:35:10;;;;;;;11.63;8.25;;;;;;;3.68;66.46;100156.75;4957550;28;20625;-71
2021/04/16 03:37:37;;;;;;;6.68;5.32;;;;;;;3.67;66.37;100153.19;4957566;28;20198;-71
2021/04/16 03:40:04;;;;;;;5.70;5.10;;;;;;;3.62;66.70;100157.75;4957469;28;20253;-70
2021/04/16 03:42:31;;;;;;;5.55;4.75;;;;;;;3.66;66.37;100153.22;4957320;28;20187;-71
2021/04/16 03:44:58;;;;;;;8.00;4.75;;;;;;;3.62;66.74;100154.19;4957136;28;20241;-71
2021/04/16 03:47:24;;;;;;;7.47;5.30;;;;;;;3.70;66.70;100161.13;4957047;28;20229;-71
2021/04/16 03:49:50;;;;;;;5.65;5.13;;;;;;;3.65;66.69;100160.34;4957085;28;20183;-70
2021/04/16 03:52:23;;;;;;;5.35;4.82;;;;;;;3.75;66.62;100153.03;4957218;28;20189;-71
2021/04/16 03:54:49;;;;;;;5.75;5.07;;;;;;;3.69;66.75;100158.50;4957033;28;20228;-71
2021/04/16 03:57:15;;;;;;;7.10;5.50;;;;;;;3.66;66.95;100156.75;4956787;28;20277;-70
2021/04/16 03:59:42;;;;;;;5.88;4.65;;;;;;;3.75;66.50;100169.00;4957094;28;20210;-71
2021/04/16 04:02:08;;;;;;;7.68;5.60;;;;;;;3.72;67.06;100166.41;4956754;28;20233;-70
2021/04/16 04:04:35;;;;;;;7.10;5.72;;;;;;;3.82;66.65;100168.00;4956839;28;20193;-71
2021/04/16 04:07:01;;;;;;;6.80;5.25;;;;;;;3.80;66.54;100166.25;4956977;28;20627;-69
2021/04/16 04:09:27;;;;;;;6.47;5.50;;;;;;;3.77;66.49;100161.88;4956899;28;20323;-71
2021/04/16 04:11:53;;;;;;;7.45;5.35;;;;;;;3.70;66.89;100162.91;4956595;28;20286;-70
2021/04/16 04:14:20;;;;;;;6.40;5.80;;;;;;;3.81;66.74;100160.03;4955838;28;20223;-71
2021/04/16 04:16:55;;;;;;;12.88;7.43;;;;;;;3.65;67.26;100162.13;4956403;28;20210;-70
2021/04/16 04:19:23;;;;;;;7.85;5.80;;;;;;;3.65;67.07;100167.47;4956315;28;20239;-72
2021/04/16 04:21:50;;;;;;;7.55;6.70;;;;;;;3.65;67.17;100157.69;4956641;28;20280;-71
2021/04/16 04:24:16;;;;;;;6.85;6.22;;;;;;;3.62;67.36;100162.19;4956414;28;20296;-70
2021/04/16 04:26:43;;;;;;;6.47;5.47;;;;;;;3.55;67.72;100170.31;4956651;28;20195;-70
2021/04/16 04:29:10;;;;;;;8.80;6.32;;;;;;;3.66;67.81;100172.75;4956624;28;20633;-71
2021/04/16 04:31:46;;;;;;;7.80;5.70;;;;;;;3.61;67.85;100166.63;4956609;28;20195;-70
2021/04/16 04:34:13;;;;;;;7.70;6.18;;;;;;;3.50;68.13;100165.97;4956275;28;20200;-71
2021/04/16 04:36:40;;;;;;;6.78;5.82;;;;;;;3.57;67.82;100164.94;4956194;28;20236;-70
2021/04/16 04:39:06;;;;;;;6.90;6.28;;;;;;;3.62;67.95;100171.06;4956348;28;20276;-70
2021/04/16 04:41:32;;;;;;;10.27;7.13;;;;;;;3.64;67.78;100163.03;4956279;28;20568;-69
2021/04/16 04:43:58;;;;;;;8.95;6.35;;;;;;;3.63;67.88;100170.16;4956311;28;20194;-68
2021/04/16 04:46:24;;;;;;;8.13;6.53;;;;;;;3.67;67.97;100170.97;4956256;28;20275;-71
2021/04/16 04:48:50;;;;;;;9.15;6.38;;;;;;;3.72;67.64;100174.41;4955885;28;20231;-71
2021/04/16 04:51:18;;;;;;;7.47;6.72;;;;;;;3.70;67.28;100170.91;4956046;28;20245;-71
2021/04/16 04:53:44;;;;;;;11.00;7.25;;;;;;;3.85;67.25;100169.72;4955667;28;20192;-70
2021/04/16 04:56:10;;;;;;;8.60;6.18;;;;;;;3.83;67.06;100166.19;4956007;28;20287;-70
2021/04/16 04:58:36;;;;;;;8.55;6.55;;;;;;;3.81;67.28;100173.34;4955364;28;20278;-71
2021/04/16 05:01:02;;;;;;;7.03;6.30;;;;;;;3.99;67.06;100172.94;4955030;28;20208;-70
2021/04/16 05:03:28;;;;;;;9.88;7.15;;;;;;;4.07;66.67;100165.66;4955365;28;20290;-72
2021/04/16 05:05:54;;;;;;;9.27;7.63;;;;;;;4.09;66.79;100170.94;4955789;28;20652;-69
2021/04/16 05:08:21;;;;;;;8.93;7.35;;;;;;;4.12;67.28;100170.88;4955277;28;20261;-70
2021/04/16 05:10:47;;;;;;;11.63;7.05;;;;;;;4.22;66.26;100167.09;4955464;28;20194;-69
2021/04/16 05:13:14;;;;;;;9.27;7.40;;;;;;;4.35;66.18;100170.34;4955507;28;20283;-72
2021/04/16 05:15:40;;;;;;;17.08;11.32;;;;;;;4.37;66.04;100161.41;4955044;28;20207;-71
2021/04/16 05:18:06;;;;;;;9.07;7.47;;;;;;;4.32;66.12;100159.75;4955441;28;20185;-72
2021/04/16 05:20:32;;;;;;;10.18;7.75;;;;;;;4.54;65.55;100162.78;4955003;28;20249;-71
2021/04/16 05:22:58;;;;;;;9.00;6.75;;;;;;;4.28;65.83;100163.41;4955082;28;20228;-70
2021/04/16 05:25:25;;;;;;;9.10;8.02;;;;;;;4.30;65.90;100157.13;4954778;28;20228;-71
2021/04/16 05:27:51;;;;;;;10.23;8.07;;;;;;;4.42;65.36;100166.63;4954960;28;20230;-69
2021/04/16 05:30:18;;;;;;;11.07;8.25;;;;;;;4.26;66.33;100166.09;4954984;28;20227;-72
2021/04/16 05:32:45;;;;;;;9.77;7.30;;;;;;;4.24;66.00;100172.41;4955407;28;20238;-70
2021/04/16 05:35:12;;;;;;;10.50;7.60;;;;;;;4.18;66.26;100168.97;4954841;28;20239;-71
2021/04/16 05:37:39;;;;;;;9.52;8.15;;;;;;;4.26;66.05;100174.09;4955039;28;20590;-71
2021/04/16 05:40:07;;;;;;;11.13;7.43;;;;;;;4.42;66.15;100163.97;4954739;28;20221;-71
2021/04/16 05:42:35;;;;;;;12.15;8.32;;;;;;;4.32;66.09;100176.63;4954812;28;20695;-69
2021/04/16 05:45:01;;;;;;;11.68;8.30;;;;;;;4.50;65.54;100174.44;4954357;28;20221;-71
2021/04/16 05:47:28;;;;;;;9.95;8.88;;;;;;;4.65;65.05;100174.06;4954502;28;20242;-70
2021/04/16 05:49:54;;;;;;;10.02;8.07;;;;;;;4.41;65.29;100172.88;4954456;28;20206;-71
2021/04/16 05:52:20;;;;;;;10.23;7.75;;;;;;;4.62;65.13;100171.47;4954392;28;20248;-71
2021/04/16 05:54:47;;;;;;;11.75;8.35;;;;;;;4.72;64.85;100169.44;4954505;28;20274;-69
2021/04/16 05:57:13;;;;;;;8.57;7.75;;;;;;;4.56;65.15;100171.63;4954877;28;20290;-71
2021/04/16 05:59:41;;;;;;;10.07;9.10;;;;;;;4.64;65.31;100167.00;4954653;28;20200;-70
2021/04/16 06:02:23;;;;;;;10.18;9.18;;;;;;;4.88;64.44;100169.94;4954004;28;20249;-70
2021/04/16 06:04:49;;;;;;;12.00;7.63;;;;;;;4.63;64.84;100173.22;4954572;28;20645;-69
2021/04/16 06:07:16;;;;;;;10.65;7.32;;;;;;;4.57;65.36;100168.94;4954815;28;20192;-72
2021/04/16 06:09:42;;;;;;;8.88;7.97;;;;;;;4.57;65.36;100178.72;4953959;28;20221;-69
2021/04/16 06:12:10;;;;;;;8.63;7.43;;;;;;;4.51;66.22;100171.75;4954111;28;20203;-71
2021/04/16 06:14:36;;;;;;;10.75;7.80;;;;;;;4.70;65.78;100181.94;4954563;28;20654;-71
2021/04/16 06:17:04;;;;;;;9.90;7.57;;;;;;;4.91;65.42;100177.88;4954358;28;20234;-69
2021/04/16 06:19:30;;;;;;;11.95;6.63;;;;;;;5.25;64.67;100177.00;4954359;28;20703;-70
2021/04/16 06:21:56;;;;;;;7.78;6.97;;;;;;;5.03;65.36;100177.56;4954427;28;20282;-70
2021/04/16 06:24:22;;;;;;;8.48;7.28;;;;;;;5.03;65.65;100174.88;4954065;28;20235;-72
2021/04/16 06:26:48;;;;;;;8.25;7.45;;;;;;;5.32;64.90;100179.44;4954534;28;20231;-70
2021/04/16 06:29:14;;;;;;;8.48;7.25;;;;;;;5.59;64.31;100176.94;4954362;28;20298;-70
2021/04/16 06:31:40;;;;;;;9.93;7.25;;;;;;;5.58;64.83;100178.69;4954571;28;20228;-71
2021/04/16 06:34:07;;;;;;;9.55;7.53;;;;;;;5.79;64.61;100163.00;4954446;28;20191;-71
2021/04/16 06:36:33;;;;;;;11.75;7.13;;;;;;;5.52;65.69;100162.00;4954567;28;20222;-71
2021/04/16 06:38:59;;;;;;;8.95;7.40;;;;;;;5.53;65.90;100159.28;4957747;28;20296;-72
2021/04/16 06:41:31;;;;;;;8.80;7.90;;;;;;;5.73;65.48;100171.19;4958553;28;20227;-71
2021/04/16 06:44:00;;;;;;;7.55;6.75;;;;;;;5.65;65.94;100168.72;4957962;28;20197;-71
2021/04/16 06:46:29;;;;;;;8.90;6.82;;;;;;;5.63;66.18;100163.44;4958196;28;20212;-73
2021/04/16 06:48:58;;;;;;;8.13;5.90;;;;;;;5.64;65.25;100170.53;4957799;28;20308;-71
2021/04/16 06:51:25;;;;;;;7.10;6.28;;;;;;;5.51;65.36;100170.91;4958313;28;20861;-70
2021/04/16 06:53:57;;;;;;;7.90;7.10;;;;;;;5.82;65.30;100165.56;4958298;28;20969;-73
2021/04/16 06:56:31;;;;;;;8.88;6.35;;;;;;;6.18;63.52;100160.94;4957908;28;20607;-71
2021/04/16 06:59:02;;;;;;;7.95;7.15;;;;;;;6.13;63.52;100164.66;4957891;28;20204;-70
2021/04/16 07:01:35;;;;;;;7.90;5.75;;;;;;;6.43;62.27;100160.16;4957586;28;20635;-70
2021/04/16 07:04:20;;;;;;;6.80;6.10;;;;;;;6.57;61.82;100162.38;4957382;28;20323;-70
2021/04/16 07:06:51;;;;;;;8.27;6.63;;;;;;;6.79;61.35;100163.44;4957956;28;20200;-71
2021/04/16 07:09:21;;;;;;;6.78;6.07;;;;;;;6.59;60.36;100160.53;4958020;28;20643;-68
2021/04/16 07:11:51;;;;;;;10.68;5.60;;;;;;;6.55;60.92;100159.75;4957776;28;20273;-71
2021/04/16 07:14:27;;;;;;;6.13;5.35;;;;;;;6.46;60.63;100152.03;4957747;28;20201;-70
2021/04/16 07:16:53;;;;;;;8.00;6.30;;;;;;;6.45;61.17;100156.50;4957572;28;20228;-69
2021/04/16 07:19:23;;;;;;;6.22;5.72;;;;;;;6.67;60.40;100159.38;4957528;28;20200;-70
2021/04/16 07:21:56;;;;;;;7.05;5.50;;;;;;;6.75;59.20;100159.09;4957779;28;20204;-71
2021/04/16 07:24:23;;;;;;;7.18;6.22;;;;;;;5.98;60.53;100163.34;4957638;28;20655;-69
2021/04/16 07:26:51;;;;;;;7.97;6.20;;;;;;;5.68;61.85;100170.47;4956587;28;20303;-70
2021/04/16 07:29:39;;;;;;;7.03;6.22;;;;;;;5.67;62.51;100172.22;4956870;28;20302;-70
2021/04/16 07:32:06;;;;;;;7.43;5.63;;;;;;;5.68;61.61;100167.78;4956780;28;20224;-70
2021/04/16 07:34:37;;;;;;;7.80;6.40;;;;;;;5.75;61.39;100172.03;4957154;28;20643;-70
2021/04/16 07:37:17;;;;;;;5.93;5.43;;;;;;;5.56;61.12;100164.53;4957064;28;20192;-70
2021/04/16 07:39:49;;;;;;;6.53;5.82;;;;;;;5.62;60.72;100169.69;4956816;28;20194;-71
2021/04/16 07:42:25;;;;;;;6.50;5.90;;;;;;;5.63;60.27;100170.56;4956710;28;20257;-71
2021/04/16 07:45:17;;;;;;;5.70;5.10;;;;;;;5.71;59.32;100157.00;4956956;28;20235;-68
2021/04/16 07:47:46;;;;;;;5.38;4.88;;;;;;;5.64;59.86;100165.19;4949123;29;20214;-70
2021/04/16 07:50:26;;;;;;;9.10;5.78;;;;;;;5.75;59.09;100169.34;4955840;28;20736;-71
2021/04/16 07:52:53;;;;;;;8.02;6.47;;;;;;;5.85;58.89;100168.13;4957116;28;20190;-70
2021/04/16 07:55:23;;;;;;;10.52;9.63;;;;;;;5.91;59.05;100169.78;4956922;28;20565;-69
2021/04/16 07:58:04;;;;;;;6.05;5.30;;;;;;;6.22;58.01;100167.09;4957062;28;20191;-70
2021/04/16 08:00:33;;;;;;;8.13;5.50;;;;;;;6.15;58.41;100174.41;4957174;28;20654;-70
2021/04/16 08:03:08;;;;;;;8.40;6.47;;;;;;;6.34;57.70;100158.66;4956894;28;20542;-70
2021/04/16 08:05:37;;;;;;;6.45;5.28;;;;;;;6.49;56.91;100162.66;4957069;28;20702;-69
2021/04/16 08:08:13;;;;;;;6.68;5.43;;;;;;;6.89;55.23;100172.88;4956895;28;20232;-70
2021/04/16 08:10:40;;;;;;;5.95;4.97;;;;;;;6.70;55.41;100169.09;4956944;28;20242;-70
2021/04/16 08:13:10;;;;;;;5.50;5.10;;;;;;;6.83;54.56;100169.56;4956493;28;20216;-72
2021/04/16 08:15:36;;;;;;;6.18;5.47;;;;;;;6.60;55.45;100164.94;4957137;28;20195;-70
2021/04/16 08:18:11;;;;;;;9.73;8.52;;;;;;;7.19;53.66;100172.78;4956691;28;20235;-71
2021/04/16 08:20:51;;;;;;;6.10;5.15;;;;;;;7.06;53.93;100172.31;4956360;28;20344;-69
2021/04/16 08:23:19;;;;;;;6.25;5.65;;;;;;;7.25;53.48;100164.50;4956264;28;20199;-71
2021/04/16 08:25:52;;;;;;;7.13;5.85;;;;;;;7.49;52.93;100172.63;4956383;28;20650;-70
2021/04/16 08:28:22;;;;;;;6.18;5.60;;;;;;;7.87;51.60;100168.50;4956206;28;20236;-70
2021/04/16 08:30:56;;;;;;;6.75;6.05;;;;;;;8.13;50.58;100166.63;4955862;28;20209;-69
2021/04/16 08:33:29;;;;;;;6.80;5.70;;;;;;;8.40;49.50;100159.31;4955897;28;20239;-70
2021/04/16 08:36:06;;;;;;;8.07;5.00;;;;;;;8.72;48.51;100157.13;4955622;28;20647;-72
2021/04/16 08:38:39;;;;;;;5.72;5.10;;;;;;;8.99;47.72;100155.09;4956202;28;20189;-72
2021/04/16 08:41:09;;;;;;;5.28;4.88;;;;;;;8.56;48.33;100157.75;4956411;28;20247;-70
2021/04/16 08:43:40;;;;;;;6.75;5.00;;;;;;;8.34;49.17;100155.06;4955289;28;20534;-69
2021/04/16 08:46:19;;;;;;;5.93;5.43;;;;;;;8.60;48.99;100160.34;4955635;28;20207;-71
2021/04/16 08:48:52;;;;;;;6.43;5.15;;;;;;;8.72;47.92;100152.63;4955718;28;20222;-70
2021/04/16 08:51:20;;;;;;;6.30;4.82;;;;;;;8.61;48.06;100154.88;4956154;28;20193;-71
2021/04/16 08:53:47;;;;;;;8.20;4.80;;;;;;;8.57;48.04;100158.66;4956052;28;20204;-71
2021/04/16 08:56:22;;;;;;;5.32;4.60;;;;;;;8.12;48.35;100163.06;4955449;28;20253;-70
2021/04/16 08:58:50;;;;;;;5.95;5.13;;;;;;;8.27;48.13;100158.91;4955987;28;20216;-71
2021/04/16 09:01:20;;;;;;;8.02;5.40;;;;;;;8.89;46.59;100167.19;4955747;28;20834;-70
2021/04/16 09:03:49;;;;;;;5.50;5.00;;;;;;;8.84;46.24;100156.63;4955488;28;20442;-71
2021/04/16 09:06:25;;;;;;;5.85;5.13;;;;;;;8.54;47.08;100165.00;4955901;28;20279;-70
2021/04/16 09:08:54;;;;;;;6.70;6.07;;;;;;;7.86;49.09;100163.19;4955545;28;20245;-70
2021/04/16 09:11:52;;;;;;;10.45;5.22;;;;;;;7.96;48.71;100167.28;4955660;28;20650;-69
2021/04/16 09:14:52;;;;;;;5.88;5.35;;;;;;;8.13;48.12;100159.44;4955475;28;20600;-71
2021/04/16 09:17:18;;;;;;;6.07;5.05;;;;;;;7.97;48.45;100169.03;4955187;28;20189;-71
2021/04/16 09:20:00;;;;;;;6.18;5.30;;;;;;;8.24;48.50;100171.56;4954986;28;20185;-71
2021/04/16 09:22:43;;;;;;;5.43;4.78;;;;;;;7.99;48.72;100163.59;4955340;28;20189;-70
2021/04/16 09:25:45;;;;;;;7.00;4.57;;;;;;;8.39;47.37;100165.59;4955443;28;20566;-71
2021/04/16 09:28:55;;;;;;;6.43;4.80;;;;;;;8.55;47.56;100161.38;4895776;29;20226;-71
2021/04/16 09:31:52;;;;;;;5.78;5.28;;;;;;;8.96;46.60;100161.47;4895950;29;20227;-70
2021/04/16 09:34:21;;;;;;;7.65;4.75;;;;;;;9.23;45.53;100160.38;4948204;28;20557;-71
2021/04/16 09:36:50;;;;;;;5.20;4.70;;;;;;;9.54;44.38;100159.84;4954731;28;20348;-71
2021/04/16 09:39:32;;;;;;;7.60;5.55;;;;;;;9.66;43.31;100155.75;4954934;28;20191;-71
2021/04/16 09:42:00;;;;;;;4.60;4.30;;;;;;;9.60;43.15;100163.13;4955282;28;20278;-71
2021/04/16 09:44:43;;;;;;;8.00;5.35;;;;;;;9.22;43.54;100172.91;4955018;28;20542;-70
2021/04/16 09:47:10;;;;;;;6.05;4.95;;;;;;;9.29;43.64;100162.75;4955212;28;20236;-72
2021/04/16 09:49:39;;;;;;;5.47;4.70;;;;;;;9.14;43.84;100161.63;4954526;28;20226;-71
2021/04/16 09:52:42;;;;;;;5.55;4.63;;;;;;;8.81;43.93;100167.47;4955044;28;20655;-70
2021/04/16 09:55:42;;;;;;;5.07;4.55;;;;;;;8.28;44.94;100165.16;4954771;29;20228;-71
2021/04/16 09:58:09;;;;;;;5.72;4.20;;;;;;;8.02;45.67;100172.41;4942217;29;20671;-71
2021/04/16 10:01:07;;;;;;;5.00;4.50;;;;;;;8.59;44.86;100169.31;4954449;28;20205;-70
2021/04/16 10:03:43;;;;;;;5.60;4.78;;;;;;;8.84;44.41;100164.69;4954457;28;20303;-71
2021/04/16 10:06:35;;;;;;;5.38;4.85;;;;;;;8.81;44.25;100166.63;4954378;28;20189;-72
2021/04/16 10:09:26;;;;;;;5.45;5.03;;;;;;;8.63;44.79;100160.19;4951235;28;20694;-71
2021/04/16 10:11:55;;;;;;;9.88;7.22;;;;;;;9.13;44.12;100165.25;4946924;28;20202;-71
2021/04/16 10:14:30;;;;;;;7.50;6.25;;;;;;;9.33;43.31;100167.94;4953800;28;20225;-71
2021/04/16 10:17:00;;;;;;;8.43;5.93;;;;;;;9.34;43.83;100166.13;4953973;28;20189;-70
2021/04/16 10:19:30;;;;;;;5.90;5.00;;;;;;;9.33;43.49;100167.06;4954129;28;20296;-71
2021/04/16 10:21:57;;;;;;;5.35;4.50;;;;;;;8.94;44.38;100163.34;4954533;28;20595;-71
2021/04/16 12:39:52;;;;;;;3.70;3.22;;;;;;;9.11;44.86;100127.72;4956121;29;20188;-72
2021/04/16 12:42:18;;;;;;;4.00;3.60;;;;;;;8.80;45.85;100128.16;4955724;28;20392;-71
2021/04/16 12:44:48;;;;;;;4.20;3.28;;;;;;;8.54;46.67;100135.47;4956165;28;20222;-71
2021/04/16 12:47:19;;;;;;;3.20;2.90;;;;;;;8.27;47.56;100129.38;4956030;28;20186;-69
2021/04/16 12:49:45;;;;;;;4.63;2.80;;;;;;;8.26;47.39;100126.78;4955739;28;20209;-72
2021/04/16 12:52:13;;;;;;;2.75;2.55;;;;;;;8.08;47.76;100133.75;4955821;28;20569;-70
2021/04/16 12:54:42;;;;;;;3.53;2.50;;;;;;;8.35;47.17;100129.09;4955145;28;20192;-71
2021/04/16 12:57:16;;;;;;;3.00;2.63;;;;;;;8.90;46.38;100121.44;4955363;28;20607;-72
2021/04/16 12:59:43;;;;;;;3.65;2.40;;;;;;;9.60;44.84;100124.63;4954999;28;20405;-71
2021/04/16 13:02:20;;;;;;;3.05;2.63;;;;;;;9.91;43.74;100117.84;4955048;28;20664;-70
2021/04/16 13:04:47;;;;;;;7.07;3.25;;;;;;;10.38;42.64;100118.28;4955249;28;20206;-72
2021/04/16 13:07:13;;;;;;;4.68;2.38;;;;;;;10.75;41.53;100121.81;4955466;28;20287;-71
2021/04/16 13:09:39;;;;;;;5.18;3.35;;;;;;;11.31;40.61;100118.97;4955061;28;20224;-71
2021/04/16 13:12:06;;;;;;;9.27;8.20;;;;;;;10.31;42.04;100118.63;4955395;28;20295;-72
2021/04/16 13:14:33;;;;;;;4.13;3.63;;;;;;;10.18;41.88;100115.66;4955099;28;20212;-72
2021/04/16 13:16:59;;;;;;;3.70;3.40;;;;;;;10.01;42.35;100116.44;4954835;28;20546;-71
2021/04/16 13:19:31;;;;;;;2.42;2.22;;;;;;;9.93;42.69;100111.44;4954887;28;20234;-72
2021/04/16 13:22:02;;;;;;;2.88;2.40;;;;;;;10.13;42.40;100107.81;4954807;28;20227;-72
2021/04/16 13:24:29;;;;;;;2.85;2.55;;;;;;;10.04;42.77;100113.63;4954747;28;20226;-72
2021/04/16 13:26:55;;;;;;;2.63;2.42;;;;;;;10.46;41.76;100100.88;4955012;28;20210;-71
2021/04/16 13:29:21;;;;;;;2.70;2.50;;;;;;;10.62;40.99;100105.41;4954895;28;20638;-73
2021/04/16 13:31:47;;;;;;;2.78;2.17;;;;;;;10.44;41.54;100098.25;4954705;28;20220;-72
2021/04/16 13:34:14;;;;;;;2.55;2.35;;;;;;;11.13;40.67;100089.34;4954976;28;20204;-70
2021/04/16 13:36:41;;;;;;;4.25;3.17;;;;;;;11.46;39.79;100086.69;4954725;28;20271;-71
2021/04/16 13:39:07;;;;;;;3.00;2.80;;;;;;;11.70;39.06;100083.59;4954792;28;20195;-71
2021/04/16 13:41:34;;;;;;;4.50;3.03;;;;;;;11.25;39.80;100083.28;4954973;28;20731;-70
2021/04/16 13:44:00;;;;;;;2.58;2.13;;;;;;;11.20;39.77;100079.09;4955390;28;20655;-71
2021/04/16 13:46:30;;;;;;;3.03;2.58;;;;;;;10.25;40.55;100079.41;4954787;28;20193;-71
2021/04/16 13:48:56;;;;;;;2.30;2.10;;;;;;;9.92;41.33;100073.84;4954510;28;20254;-70
2021/04/16 13:51:25;;;;;;;3.28;2.53;;;;;;;10.12;41.11;100080.97;4955124;28;20603;-71
2021/04/16 13:53:52;;;;;;;2.67;2.00;;;;;;;9.92;41.55;100076.53;4954620;28;20200;-72
2021/04/16 13:56:18;;;;;;;2.85;2.40;;;;;;;9.93;42.49;100073.78;4954349;28;20512;-71
2021/04/16 13:58:45;;;;;;;4.13;3.42;;;;;;;10.01;42.40;100068.88;4954516;28;20203;-72